Time;durP1;ratioP1;P1;durP2;ratioP2;P2;SDS_P1;SDS_P2;PMS_P1;PMS_P2;Temp;Humidity;BMP_temperature;BMP_pressure;BME280_temperature;BME280_humidity;BME280_pressure;Samples;Min_cycle;Max_cycle;Signal;HPM_P1;HPM_P2
2021/10/11 00:02:42;;;;;;;5.40;1.87;;;;;;;;;;10214445;28;20042;-64
2021/10/11 00:07:41;;;;;;;7.20;2.20;;;;;;;;;;10225199;28;20106;-65
2021/10/11 00:12:38;;;;;;;6.88;1.85;;;;;;;;;;10226746;28;20042;-66
2021/10/11 00:17:36;;;;;;;23.93;3.53;;;;;;;;;;10233185;28;20039;-65
2021/10/11 00:22:33;;;;;;;4.40;1.63;;;;;;;;;;10237858;28;20344;-64
2021/10/11 00:27:31;;;;;;;8.37;1.33;;;;;;;;;;10246694;28;20413;-65
2021/10/11 00:32:29;;;;;;;12.55;1.10;;;;;;;;;;10217354;28;20119;-65
2021/10/11 00:37:26;;;;;;;6.30;1.13;;;;;;;;;;10250451;28;20056;-64
2021/10/11 00:42:24;;;;;;;2.23;1.10;;;;;;;;;;10235913;28;20511;-64
2021/10/11 00:47:21;;;;;;;2.40;0.87;;;;;;;;;;10243093;28;20034;-65
2021/10/11 00:52:19;;;;;;;9.13;1.43;;;;;;;;;;10238470;28;20026;-65
2021/10/11 00:57:16;;;;;;;5.10;1.77;;;;;;;;;;10235402;28;20042;-65
2021/10/11 01:02:14;;;;;;;5.60;1.00;;;;;;;;;;10234456;28;20412;-65
2021/10/11 01:07:11;;;;;;;9.20;0.93;;;;;;;;;;10242165;28;20041;-65
2021/10/11 01:12:09;;;;;;;6.10;1.17;;;;;;;;;;10227999;28;20042;-64
2021/10/11 01:17:06;;;;;;;8.37;1.23;;;;;;;;;;10240359;28;20046;-64
2021/10/11 01:22:03;;;;;;;9.60;1.50;;;;;;;;;;10233106;28;20135;-64
2021/10/11 01:27:01;;;;;;;3.33;1.10;;;;;;;;;;10249455;28;20049;-64
2021/10/11 01:31:58;;;;;;;1.83;0.40;;;;;;;;;;10244680;28;20030;-65
2021/10/11 01:36:55;;;;;;;4.70;1.27;;;;;;;;;;10223893;28;20896;-65
2021/10/11 01:41:55;;;;;;;0.83;0.83;;;;;;;;;;10245678;28;20504;-65
2021/10/11 01:46:52;;;;;;;2.65;0.65;;;;;;;;;;10229677;28;20021;-64
2021/10/11 01:51:50;;;;;;;5.50;1.43;;;;;;;;;;10255518;28;20034;-64
2021/10/11 01:56:47;;;;;;;5.50;1.57;;;;;;;;;;10219092;28;20449;-65
2021/10/11 02:01:44;;;;;;;2.73;2.40;;;;;;;;;;10239518;28;20076;-65
2021/10/11 02:06:42;;;;;;;2.47;0.90;;;;;;;;;;10244586;28;20046;-65
2021/10/11 02:11:39;;;;;;;1.93;0.33;;;;;;;;;;10266819;28;20034;-65
2021/10/11 02:16:37;;;;;;;1.70;0.73;;;;;;;;;;10261559;28;20104;-65
2021/10/11 02:21:34;;;;;;;3.03;1.20;;;;;;;;;;10262689;28;20061;-65
2021/10/11 02:26:31;;;;;;;1.27;0.80;;;;;;;;;;10269320;28;20042;-65
2021/10/11 02:31:30;;;;;;;5.13;0.65;;;;;;;;;;10266128;28;20076;-65
2021/10/11 02:36:27;;;;;;;4.63;0.90;;;;;;;;;;10270922;28;20067;-65
2021/10/11 02:41:25;;;;;;;5.33;0.83;;;;;;;;;;10278085;28;20430;-65
2021/10/11 02:46:22;;;;;;;0.87;0.83;;;;;;;;;;10254751;28;20046;-65
2021/10/11 02:51:19;;;;;;;11.73;1.40;;;;;;;;;;10252419;28;20049;-64
2021/10/11 02:56:17;;;;;;;1.20;0.10;;;;;;;;;;10252472;28;20046;-65
2021/10/11 03:01:15;;;;;;;2.72;0.73;;;;;;;;;;10269927;28;20112;-65
2021/10/11 03:06:12;;;;;;;3.13;0.83;;;;;;;;;;10269519;28;20042;-64
2021/10/11 03:11:10;;;;;;;2.03;0.80;;;;;;;;;;10251136;28;20042;-65
2021/10/11 03:16:07;;;;;;;5.33;1.57;;;;;;;;;;10282100;28;20509;-63
2021/10/11 03:21:05;;;;;;;1.03;0.63;;;;;;;;;;10266748;28;20029;-65
2021/10/11 03:26:02;;;;;;;2.87;0.70;;;;;;;;;;10269879;28;20113;-64
2021/10/11 03:30:59;;;;;;;5.10;1.40;;;;;;;;;;10276259;28;20045;-66
2021/10/11 03:35:57;;;;;;;10.70;1.27;;;;;;;;;;10267849;28;20642;-64
2021/10/11 03:40:54;;;;;;;7.40;1.27;;;;;;;;;;10257888;28;20124;-64
2021/10/11 03:45:52;;;;;;;7.13;1.43;;;;;;;;;;10258173;28;20099;-64
2021/10/11 03:50:50;;;;;;;15.77;1.77;;;;;;;;;;10274813;28;20068;-64
2021/10/11 03:55:47;;;;;;;11.67;1.47;;;;;;;;;;10264202;28;20037;-66
2021/10/11 04:00:44;;;;;;;1.57;0.80;;;;;;;;;;10249636;28;20037;-63
2021/10/11 04:05:42;;;;;;;3.10;1.23;;;;;;;;;;10273327;28;20033;-65
2021/10/11 04:10:49;;;;;;;8.70;1.07;;;;;;;;;;10274843;28;20488;-65
2021/10/11 04:15:48;;;;;;;4.18;0.82;;;;;;;;;;10266099;28;20060;-65
2021/10/11 04:20:45;;;;;;;7.30;0.70;;;;;;;;;;10200356;28;20031;-65
2021/10/11 04:25:43;;;;;;;5.40;0.60;;;;;;;;;;10240058;28;20046;-65
2021/10/11 04:30:41;;;;;;;7.07;0.77;;;;;;;;;;10239041;28;20419;-62
2021/10/11 04:35:38;;;;;;;4.57;1.02;;;;;;;;;;10245660;28;20038;-65
2021/10/11 04:40:36;;;;;;;3.83;0.80;;;;;;;;;;10250683;28;20227;-65
2021/10/11 04:45:33;;;;;;;2.70;0.80;;;;;;;;;;10233035;28;20561;-64
2021/10/11 04:50:32;;;;;;;2.43;0.73;;;;;;;;;;10256223;28;20053;-63
2021/10/11 04:55:30;;;;;;;3.83;1.08;;;;;;;;;;10206223;28;20038;-63
2021/10/11 05:00:28;;;;;;;6.00;0.87;;;;;;;;;;10239335;28;20061;-62
2021/10/11 05:05:25;;;;;;;2.70;0.57;;;;;;;;;;10214125;28;20050;-61
2021/10/11 05:10:23;;;;;;;3.10;1.33;;;;;;;;;;10222863;28;20519;-64
2021/10/11 05:15:20;;;;;;;4.27;0.93;;;;;;;;;;10238101;28;20034;-63
2021/10/11 05:20:18;;;;;;;4.33;0.83;;;;;;;;;;10231594;28;20077;-62
2021/10/11 05:25:15;;;;;;;5.07;0.60;;;;;;;;;;10244180;28;20076;-63
2021/10/11 05:30:12;;;;;;;2.80;1.37;;;;;;;;;;10221923;28;20084;-62
2021/10/11 05:35:10;;;;;;;3.17;1.17;;;;;;;;;;10234660;28;20049;-59
2021/10/11 05:40:08;;;;;;;3.80;1.00;;;;;;;;;;10223058;28;20282;-63
2021/10/11 05:45:06;;;;;;;4.03;1.02;;;;;;;;;;10231953;28;20034;-62
2021/10/11 05:50:05;;;;;;;5.57;1.05;;;;;;;;;;10209054;28;20088;-63
2021/10/11 05:55:02;;;;;;;4.45;1.10;;;;;;;;;;10240998;28;20568;-59
2021/10/11 06:00:00;;;;;;;3.30;0.93;;;;;;;;;;10248452;28;20377;-63
2021/10/11 06:04:57;;;;;;;5.07;1.10;;;;;;;;;;10245910;28;20127;-62
2021/10/11 06:09:55;;;;;;;5.63;0.50;;;;;;;;;;10228743;28;20041;-62
2021/10/11 06:14:52;;;;;;;3.50;0.80;;;;;;;;;;10230245;28;20042;-63
2021/10/11 06:19:50;;;;;;;0.57;0.50;;;;;;;;;;10240896;28;20030;-63
2021/10/11 06:24:47;;;;;;;3.93;0.53;;;;;;;;;;10227102;28;20085;-62
2021/10/11 06:29:45;;;;;;;7.47;0.50;;;;;;;;;;10207042;28;20504;-63
2021/10/11 06:34:42;;;;;;;4.00;0.73;;;;;;;;;;10209806;28;20030;-62
2021/10/11 06:39:40;;;;;;;2.40;1.03;;;;;;;;;;10229845;28;20049;-63
2021/10/11 06:44:37;;;;;;;5.00;0.80;;;;;;;;;;10233523;28;20421;-63
2021/10/11 06:49:35;;;;;;;7.77;1.13;;;;;;;;;;10228607;28;20077;-63
2021/10/11 06:54:32;;;;;;;4.03;0.93;;;;;;;;;;10232587;28;20045;-63
2021/10/11 06:59:29;;;;;;;7.40;1.33;;;;;;;;;;10224700;28;20041;-63
2021/10/11 07:04:28;;;;;;;0.83;0.40;;;;;;;;;;10232248;28;20054;-64
2021/10/11 07:09:25;;;;;;;2.63;0.60;;;;;;;;;;10238256;28;20512;-59
2021/10/11 07:14:22;;;;;;;8.00;1.07;;;;;;;;;;10239618;28;20113;-64
2021/10/11 07:19:20;;;;;;;4.93;0.98;;;;;;;;;;10240353;28;20034;-62
2021/10/11 07:24:18;;;;;;;2.23;0.60;;;;;;;;;;10249761;28;20099;-63
2021/10/11 07:29:15;;;;;;;1.13;0.40;;;;;;;;;;10244629;28;20049;-63
2021/10/11 07:34:13;;;;;;;6.50;0.70;;;;;;;;;;10243755;28;20500;-63
2021/10/11 07:39:10;;;;;;;1.63;0.70;;;;;;;;;;10225432;28;20428;-64
2021/10/11 07:44:09;;;;;;;3.20;0.50;;;;;;;;;;10230772;28;20606;-64
2021/10/11 07:49:07;;;;;;;0.30;0.30;;;;;;;;;;10248961;28;20045;-64
2021/10/11 07:54:04;;;;;;;2.83;0.55;;;;;;;;;;10237554;28;20037;-63
2021/10/11 07:59:02;;;;;;;3.77;0.93;;;;;;;;;;10234889;28;20038;-62
2021/10/11 08:03:59;;;;;;;4.03;0.50;;;;;;;;;;10238753;28;20062;-64
2021/10/11 08:08:57;;;;;;;3.67;0.73;;;;;;;;;;10245768;28;21187;-63
2021/10/11 08:13:55;;;;;;;3.42;0.75;;;;;;;;;;10247379;28;20029;-63
2021/10/11 08:18:53;;;;;;;2.53;0.47;;;;;;;;;;10211630;28;20512;-63
2021/10/11 08:23:53;;;;;;;1.00;0.70;;;;;;;;;;10240785;28;20066;-63
2021/10/11 08:28:51;;;;;;;2.70;0.40;;;;;;;;;;10218697;28;20143;-62
2021/10/11 08:33:48;;;;;;;1.95;1.15;;;;;;;;;;10224596;28;20045;-63
2021/10/11 08:38:45;;;;;;;5.27;0.53;;;;;;;;;;10239342;28;20054;-61
2021/10/11 08:43:44;;;;;;;0.73;0.30;;;;;;;;;;10238045;28;20499;-63
2021/10/11 08:48:41;;;;;;;;;;;;;;;;;;10241815;28;20042;-62
2021/10/11 08:53:39;;;;;;;2.27;0.77;;;;;;;;;;10245486;28;19913;-63
2021/10/11 08:58:46;;;;;;;3.83;0.53;;;;;;;;;;10252151;28;20280;-63
2021/10/11 09:03:44;;;;;;;1.35;0.25;;;;;;;;;;10220841;28;20423;-63
2021/10/11 09:08:41;;;;;;;19.33;4.67;;;;;;;;;;10231572;28;20041;-61
2021/10/11 09:13:43;;;;;;;30.20;7.70;;;;;;;;;;10215827;28;20038;-63
2021/10/11 09:18:43;;;;;;;14.85;4.32;;;;;;;;;;10243822;28;20069;-62
2021/10/11 09:23:40;;;;;;;12.40;4.75;;;;;;;;;;10237634;28;20042;-63
2021/10/11 09:28:46;;;;;;;8.73;3.03;;;;;;;;;;10228373;28;20450;-64
2021/10/11 09:33:44;;;;;;;5.03;1.67;;;;;;;;;;10232127;28;20041;-61
2021/10/11 09:38:41;;;;;;;2.20;0.90;;;;;;;;;;10247618;28;20034;-62
2021/10/11 09:43:38;;;;;;;2.77;0.80;;;;;;;;;;10242052;28;20072;-63
2021/10/11 09:48:46;;;;;;;2.07;0.57;;;;;;;;;;10231450;28;20407;-65
2021/10/11 09:53:45;;;;;;;8.15;1.23;;;;;;;;;;10234110;28;20034;-62
2021/10/11 09:58:42;;;;;;;1.00;0.85;;;;;;;;;;10235101;28;20044;-64
2021/10/11 10:03:40;;;;;;;3.53;0.60;;;;;;;;;;10227877;28;20045;-64
2021/10/11 10:08:40;;;;;;;1.00;1.00;;;;;;;;;;10194961;28;20046;-66
2021/10/11 10:13:48;;;;;;;4.60;0.65;;;;;;;;;;10233619;28;20483;-62
2021/10/11 10:18:45;;;;;;;3.55;0.77;;;;;;;;;;10234830;28;20535;-63
2021/10/11 10:23:44;;;;;;;3.13;0.55;;;;;;;;;;10219251;28;20065;-63
2021/10/11 10:28:46;;;;;;;4.72;0.50;;;;;;;;;;10225069;28;20042;-63
2021/10/11 10:33:44;;;;;;;4.13;0.52;;;;;;;;;;10233073;28;20049;-63
2021/10/11 10:38:41;;;;;;;3.70;0.60;;;;;;;;;;10213519;28;20736;-62
2021/10/11 10:43:39;;;;;;;4.83;0.73;;;;;;;;;;10234160;28;21951;-63
2021/10/11 10:48:46;;;;;;;4.28;0.52;;;;;;;;;;10239086;28;20173;-63
2021/10/11 10:53:57;;;;;;;2.42;0.50;;;;;;;;;;10235297;28;20049;-63
2021/10/11 10:59:02;;;;;;;0.95;0.50;;;;;;;;;;10240515;28;20121;-63
2021/10/11 11:04:09;;;;;;;0.95;0.50;;;;;;;;;;10244078;28;20042;-63
2021/10/11 11:09:07;;;;;;;7.38;0.90;;;;;;;;;;10246213;28;21086;-64
2021/10/11 11:14:04;;;;;;;8.23;1.53;;;;;;;;;;10250311;28;20104;-63
2021/10/11 11:19:01;;;;;;;11.10;2.57;;;;;;;;;;10237578;28;20038;-63
2021/10/11 11:23:59;;;;;;;6.50;1.30;;;;;;;;;;10248961;28;20497;-61
2021/10/11 11:28:57;;;;;;;2.37;0.90;;;;;;;;;;10229739;28;20666;-64
2021/10/11 11:33:54;;;;;;;4.55;1.10;;;;;;;;;;10224413;28;20504;-63
2021/10/11 11:38:52;;;;;;;5.47;0.80;;;;;;;;;;10244481;28;20037;-65
2021/10/11 11:43:49;;;;;;;7.03;1.33;;;;;;;;;;10230877;28;20111;-62
2021/10/11 11:48:47;;;;;;;4.47;1.37;;;;;;;;;;10230083;28;20657;-63
2021/10/11 11:53:44;;;;;;;3.90;0.80;;;;;;;;;;10251502;28;20026;-64
2021/10/11 11:58:43;;;;;;;2.40;0.30;;;;;;;;;;10242416;28;20042;-63
2021/10/11 12:03:44;;;;;;;3.78;0.55;;;;;;;;;;10241562;28;20124;-62
2021/10/11 12:08:43;;;;;;;1.23;0.38;;;;;;;;;;10213366;28;20584;-63
2021/10/11 12:13:41;;;;;;;4.03;0.40;;;;;;;;;;10235082;28;20022;-62
2021/10/11 12:18:43;;;;;;;0.95;0.40;;;;;;;;;;10248890;28;20105;-62
2021/10/11 12:23:41;;;;;;;2.03;0.40;;;;;;;;;;10225161;28;20073;-63
2021/10/11 12:28:55;;;;;;;4.97;0.82;;;;;;;;;;10239606;28;20101;-63
2021/10/11 12:33:53;;;;;;;0.80;0.45;;;;;;;;;;10219888;28;20052;-62
2021/10/11 12:38:50;;;;;;;7.78;0.57;;;;;;;;;;10251885;28;20034;-63
2021/10/11 12:43:55;;;;;;;1.97;0.70;;;;;;;;;;10228539;28;20499;-61
2021/10/11 12:48:53;;;;;;;0.70;0.30;;;;;;;;;;10209906;28;20045;-65
2021/10/11 12:53:50;;;;;;;;;;;;;;;;;;10236681;28;20489;-63
2021/10/11 12:58:55;;;;;;;0.82;0.20;;;;;;;;;;10239684;28;19917;-64
2021/10/11 13:03:52;;;;;;;1.33;0.30;;;;;;;;;;10243567;28;20053;-64
2021/10/11 13:08:50;;;;;;;2.97;0.40;;;;;;;;;;10241549;28;20554;-64
2021/10/11 13:13:47;;;;;;;4.38;0.50;;;;;;;;;;10228827;28;20500;-63
2021/10/11 13:18:45;;;;;;;4.03;0.90;;;;;;;;;;10249272;28;20034;-66
2021/10/11 13:23:43;;;;;;;5.63;1.43;;;;;;;;;;10235937;28;20474;-63
2021/10/11 13:28:48;;;;;;;3.92;0.40;;;;;;;;;;10246125;28;20169;-63
2021/10/11 13:34:29;;;;;;;4.03;1.23;;;;;;;;;;10224702;28;20488;-63
2021/10/11 14:32:31;;;;;;;2.13;0.32;;;;;;;;;;10234497;28;20043;-64
2021/10/11 16:06:16;;;;;;;2.05;0.60;;;;;;;;;;10215735;28;20138;-61
2021/10/11 16:11:13;;;;;;;2.95;0.50;;;;;;;;;;10246865;28;20967;-60
2021/10/11 16:16:11;;;;;;;9.90;1.27;;;;;;;;;;10241468;28;20114;-59
2021/10/11 16:21:09;;;;;;;1.03;0.70;;;;;;;;;;10219772;28;20038;-59
2021/10/11 16:26:08;;;;;;;1.40;0.50;;;;;;;;;;10239540;28;20041;-60
2021/10/11 16:31:06;;;;;;;0.40;0.40;;;;;;;;;;10239391;28;20403;-60
2021/10/11 16:36:08;;;;;;;1.02;0.93;;;;;;;;;;10190917;28;20046;-59
2021/10/11 16:41:06;;;;;;;6.32;0.95;;;;;;;;;;10237378;28;20042;-61
2021/10/11 16:46:04;;;;;;;3.67;0.67;;;;;;;;;;10236864;28;20041;-63
2021/10/11 16:51:03;;;;;;;2.47;0.55;;;;;;;;;;10238738;28;20440;-62
2021/10/11 16:56:01;;;;;;;6.47;0.93;;;;;;;;;;10238897;28;20045;-61
2021/10/11 17:00:58;;;;;;;3.65;0.40;;;;;;;;;;10229155;28;20333;-62
2021/10/11 17:05:58;;;;;;;8.33;1.33;;;;;;;;;;10239121;28;20511;-63
2021/10/11 17:10:55;;;;;;;3.50;0.43;;;;;;;;;;10238655;28;20040;-62
2021/10/11 17:15:54;;;;;;;2.30;0.97;;;;;;;;;;10245929;28;20040;-64
2021/10/11 17:20:51;;;;;;;5.93;0.88;;;;;;;;;;10239828;28;20547;-66
2021/10/11 17:25:49;;;;;;;4.70;0.97;;;;;;;;;;10236522;28;20149;-59
2021/10/11 17:30:48;;;;;;;9.25;1.60;;;;;;;;;;10232618;28;20046;-59
2021/10/11 17:35:47;;;;;;;7.72;1.30;;;;;;;;;;10237759;28;20038;-60
2021/10/11 17:40:44;;;;;;;4.97;1.07;;;;;;;;;;10245573;28;20096;-62
2021/10/11 17:45:41;;;;;;;1.77;1.00;;;;;;;;;;10240968;28;20066;-62
2021/10/11 17:50:39;;;;;;;4.77;1.10;;;;;;;;;;10233956;28;20041;-60
2021/10/11 17:55:36;;;;;;;8.80;0.93;;;;;;;;;;10238730;28;20048;-63
2021/10/11 18:00:34;;;;;;;3.93;1.03;;;;;;;;;;10232779;28;20484;-64
2021/10/11 18:05:31;;;;;;;5.33;0.97;;;;;;;;;;10222572;28;20387;-65
2021/10/11 18:10:29;;;;;;;6.67;1.23;;;;;;;;;;10244470;28;20180;-63
2021/10/11 18:15:27;;;;;;;1.67;0.70;;;;;;;;;;10217802;28;20046;-63
2021/10/11 18:20:27;;;;;;;1.00;0.53;;;;;;;;;;10231914;28;20561;-62
2021/10/11 18:25:24;;;;;;;3.75;0.70;;;;;;;;;;10229149;28;20427;-60
2021/10/11 18:30:22;;;;;;;3.20;1.00;;;;;;;;;;10233015;28;20056;-64
2021/10/11 18:35:19;;;;;;;2.37;0.53;;;;;;;;;;10233906;28;20407;-62
2021/10/11 18:40:16;;;;;;;7.80;0.90;;;;;;;;;;10242941;28;20247;-62
2021/10/11 18:45:14;;;;;;;5.63;1.10;;;;;;;;;;10239128;28;20042;-61
2021/10/11 18:50:11;;;;;;;2.17;0.60;;;;;;;;;;10224692;28;20036;-60
2021/10/11 18:55:09;;;;;;;5.50;0.80;;;;;;;;;;10229733;28;20045;-62
2021/10/11 19:00:06;;;;;;;2.53;0.87;;;;;;;;;;10217951;28;20040;-63
2021/10/11 19:05:04;;;;;;;7.87;0.90;;;;;;;;;;10211449;28;20117;-61
2021/10/11 19:10:01;;;;;;;3.87;0.90;;;;;;;;;;10236348;28;20412;-62
2021/10/11 19:14:59;;;;;;;10.90;1.47;;;;;;;;;;10227905;28;20045;-62
2021/10/11 19:19:56;;;;;;;2.50;0.63;;;;;;;;;;10231941;28;20628;-65
2021/10/11 19:24:54;;;;;;;3.50;0.70;;;;;;;;;;10232393;28;20042;-62
2021/10/11 19:29:52;;;;;;;6.57;0.80;;;;;;;;;;10226882;28;20045;-61
2021/10/11 19:34:49;;;;;;;4.37;1.03;;;;;;;;;;10231653;28;20044;-63
2021/10/11 19:39:47;;;;;;;4.23;0.60;;;;;;;;;;10211178;28;20048;-62
2021/10/11 19:44:44;;;;;;;3.17;0.60;;;;;;;;;;10228472;28;20046;-63
2021/10/11 19:49:42;;;;;;;2.30;0.50;;;;;;;;;;10229938;28;20045;-61
2021/10/11 19:54:39;;;;;;;4.43;0.33;;;;;;;;;;10234842;28;20414;-63
2021/10/11 19:59:37;;;;;;;5.83;1.07;;;;;;;;;;10227419;28;20034;-62
2021/10/11 20:04:34;;;;;;;5.43;0.40;;;;;;;;;;10231469;28;20029;-63
2021/10/11 20:09:32;;;;;;;1.03;0.40;;;;;;;;;;10222973;28;20030;-63
2021/10/11 20:14:29;;;;;;;1.15;0.45;;;;;;;;;;10246411;28;20022;-62
2021/10/11 20:19:27;;;;;;;1.50;0.80;;;;;;;;;;10239123;28;20025;-62
2021/10/11 20:24:24;;;;;;;2.33;0.70;;;;;;;;;;10231377;28;20033;-62
2021/10/11 20:29:22;;;;;;;4.60;0.43;;;;;;;;;;10241015;28;20022;-63
2021/10/11 20:34:19;;;;;;;1.13;0.83;;;;;;;;;;10240203;28;20110;-61
2021/10/11 20:39:17;;;;;;;16.73;1.20;;;;;;;;;;10230582;28;20034;-63
2021/10/11 20:44:15;;;;;;;1.45;0.40;;;;;;;;;;10246170;28;20030;-63
2021/10/11 20:49:13;;;;;;;2.57;0.70;;;;;;;;;;10243823;28;20018;-63
2021/10/11 20:54:11;;;;;;;2.58;0.30;;;;;;;;;;10223198;28;20610;-62
2021/10/11 20:59:09;;;;;;;4.03;0.47;;;;;;;;;;10236385;28;20033;-62
2021/10/11 21:04:06;;;;;;;6.33;0.47;;;;;;;;;;10250339;28;20360;-61
2021/10/11 21:09:04;;;;;;;1.10;0.37;;;;;;;;;;10242586;28;20043;-62
2021/10/11 21:14:02;;;;;;;4.13;0.40;;;;;;;;;;10240867;28;20036;-62
2021/10/11 21:19:00;;;;;;;1.97;0.40;;;;;;;;;;10233033;28;20038;-63
2021/10/11 21:23:58;;;;;;;3.95;0.40;;;;;;;;;;10234217;28;20041;-65
2021/10/11 21:28:55;;;;;;;2.30;0.30;;;;;;;;;;10240176;28;20030;-62
2021/10/11 21:33:53;;;;;;;1.63;0.60;;;;;;;;;;10244829;28;20133;-62
2021/10/11 21:38:50;;;;;;;3.63;0.40;;;;;;;;;;10241927;28;20034;-63
2021/10/11 21:43:48;;;;;;;3.20;0.50;;;;;;;;;;10217393;28;20053;-62
2021/10/11 21:48:45;;;;;;;3.73;0.60;;;;;;;;;;10244234;28;20702;-62
2021/10/11 21:53:42;;;;;;;0.53;0.30;;;;;;;;;;10254535;28;20049;-64
2021/10/11 21:58:40;;;;;;;3.40;0.73;;;;;;;;;;10215307;28;20447;-62
2021/10/11 22:03:37;;;;;;;4.90;0.77;;;;;;;;;;10226086;28;20031;-63
2021/10/11 22:08:35;;;;;;;1.10;0.33;;;;;;;;;;10235656;28;20037;-63
2021/10/11 22:13:32;;;;;;;0.20;0.20;;;;;;;;;;10227653;28;20039;-61
2021/10/11 22:18:30;;;;;;;0.43;0.40;;;;;;;;;;10237822;28;20037;-64
2021/10/11 22:23:28;;;;;;;0.70;0.43;;;;;;;;;;10227295;28;20155;-64
2021/10/11 22:28:26;;;;;;;2.63;0.20;;;;;;;;;;10229058;28;20048;-67
2021/10/11 22:33:23;;;;;;;0.35;0.35;;;;;;;;;;10201227;28;20096;-61
2021/10/11 22:38:21;;;;;;;1.50;0.50;;;;;;;;;;10230363;28;20332;-63
2021/10/11 22:43:18;;;;;;;1.47;0.20;;;;;;;;;;10236528;28;20038;-61
2021/10/11 22:48:16;;;;;;;0.27;0.27;;;;;;;;;;10239280;28;20074;-62
2021/10/11 22:53:15;;;;;;;0.17;0.10;;;;;;;;;;10250234;28;20088;-61
2021/10/11 22:58:13;;;;;;;0.30;0.10;;;;;;;;;;10251928;28;20042;-62
2021/10/11 23:03:11;;;;;;;2.03;0.43;;;;;;;;;;10241338;28;20112;-60
2021/10/11 23:08:09;;;;;;;1.17;0.47;;;;;;;;;;10221667;28;20042;-62
2021/10/11 23:13:06;;;;;;;2.00;0.40;;;;;;;;;;10224704;28;20293;-60
2021/10/11 23:18:04;;;;;;;1.53;0.33;;;;;;;;;;10242391;28;20515;-60
2021/10/11 23:23:01;;;;;;;0.80;0.50;;;;;;;;;;10248284;28;20033;-59
2021/10/11 23:27:58;;;;;;;2.60;0.37;;;;;;;;;;10222930;28;20045;-60
2021/10/11 23:32:56;;;;;;;2.03;0.70;;;;;;;;;;10238329;28;20042;-66
2021/10/11 23:37:53;;;;;;;0.73;0.50;;;;;;;;;;10253773;28;20112;-61
2021/10/11 23:42:50;;;;;;;1.50;0.47;;;;;;;;;;10246874;28;20040;-64
2021/10/11 23:47:48;;;;;;;0.30;0.20;;;;;;;;;;10235854;28;20459;-61
2021/10/11 23:52:45;;;;;;;0.53;0.30;;;;;;;;;;10241126;28;20040;-61
2021/10/11 23:57:43;;;;;;;2.80;0.77;;;;;;;;;;10240952;28;20154;-61
